sensor_id;sensor_type;location;lat;lon;timestamp;temperature;humidity
5466;DHT22;2755;50.728;7.108;2023-07-28T00:00:48;16.10;99.90
5466;DHT22;2755;50.728;7.108;2023-07-28T00:03:13;15.90;99.90
5466;DHT22;2755;50.728;7.108;2023-07-28T00:05:39;16.30;99.90
5466;DHT22;2755;50.728;7.108;2023-07-28T00:08:04;16.70;99.90
5466;DHT22;2755;50.728;7.108;2023-07-28T00:10:30;16.10;99.90
5466;DHT22;2755;50.728;7.108;2023-07-28T00:12:56;16.10;99.90
5466;DHT22;2755;50.728;7.108;2023-07-28T00:20:13;16.00;99.90
5466;DHT22;2755;50.728;7.108;2023-07-28T00:22:39;16.20;99.90
5466;DHT22;2755;50.728;7.108;2023-07-28T00:25:05;16.30;99.90
5466;DHT22;2755;50.728;7.108;2023-07-28T00:27:30;15.90;99.90
5466;DHT22;2755;50.728;7.108;2023-07-28T00:29:56;16.50;99.90
5466;DHT22;2755;50.728;7.108;2023-07-28T00:32:21;16.60;99.90
5466;DHT22;2755;50.728;7.108;2023-07-28T00:34:47;16.90;99.90
5466;DHT22;2755;50.728;7.108;2023-07-28T00:39:40;15.90;99.90
5466;DHT22;2755;50.728;7.108;2023-07-28T00:42:05;16.70;99.90
5466;DHT22;2755;50.728;7.108;2023-07-28T00:44:31;16.40;99.90
5466;DHT22;2755;50.728;7.108;2023-07-28T00:46:57;16.00;99.90
5466;DHT22;2755;50.728;7.108;2023-07-28T00:49:23;16.00;99.90
5466;DHT22;2755;50.728;7.108;2023-07-28T00:51:49;16.80;99.90
5466;DHT22;2755;50.728;7.108;2023-07-28T00:54:15;16.20;99.90
5466;DHT22;2755;50.728;7.108;2023-07-28T00:59:07;16.40;99.90
5466;DHT22;2755;50.728;7.108;2023-07-28T01:01:32;15.70;99.90
5466;DHT22;2755;50.728;7.108;2023-07-28T01:03:58;16.60;99.90
5466;DHT22;2755;50.728;7.108;2023-07-28T01:09:03;16.30;99.90
5466;DHT22;2755;50.728;7.108;2023-07-28T01:11:31;16.20;99.90
5466;DHT22;2755;50.728;7.108;2023-07-28T01:16:24;15.80;99.90
5466;DHT22;2755;50.728;7.108;2023-07-28T01:18:49;16.40;99.90
5466;DHT22;2755;50.728;7.108;2023-07-28T01:21:25;16.80;99.90
5466;DHT22;2755;50.728;7.108;2023-07-28T01:26:36;16.50;99.90
5466;DHT22;2755;50.728;7.108;2023-07-28T01:29:03;16.60;99.90
5466;DHT22;2755;50.728;7.108;2023-07-28T01:31:29;15.40;99.90
5466;DHT22;2755;50.728;7.108;2023-07-28T01:36:21;16.70;99.90
5466;DHT22;2755;50.728;7.108;2023-07-28T01:38:46;16.30;99.90
5466;DHT22;2755;50.728;7.108;2023-07-28T01:41:12;16.00;99.90
5466;DHT22;2755;50.728;7.108;2023-07-28T01:46:04;16.40;99.90
5466;DHT22;2755;50.728;7.108;2023-07-28T01:48:30;16.20;99.90
5466;DHT22;2755;50.728;7.108;2023-07-28T01:50:55;15.40;99.90
5466;DHT22;2755;50.728;7.108;2023-07-28T01:53:21;16.30;99.90
5466;DHT22;2755;50.728;7.108;2023-07-28T01:55:46;17.30;99.90
5466;DHT22;2755;50.728;7.108;2023-07-28T01:58:12;16.40;99.90
5466;DHT22;2755;50.728;7.108;2023-07-28T02:00:38;16.50;99.90
5466;DHT22;2755;50.728;7.108;2023-07-28T02:03:03;16.50;99.90
5466;DHT22;2755;50.728;7.108;2023-07-28T02:05:30;16.30;99.90
5466;DHT22;2755;50.728;7.108;2023-07-28T02:07:56;16.30;99.90
5466;DHT22;2755;50.728;7.108;2023-07-28T02:10:29;16.50;99.90
5466;DHT22;2755;50.728;7.108;2023-07-28T02:12:54;16.70;99.90
5466;DHT22;2755;50.728;7.108;2023-07-28T02:15:20;15.70;99.90
5466;DHT22;2755;50.728;7.108;2023-07-28T02:17:46;17.00;99.90
5466;DHT22;2755;50.728;7.108;2023-07-28T02:20:11;16.30;99.90
5466;DHT22;2755;50.728;7.108;2023-07-28T02:22:39;16.40;99.90
5466;DHT22;2755;50.728;7.108;2023-07-28T02:25:05;16.50;99.90
5466;DHT22;2755;50.728;7.108;2023-07-28T02:32:23;16.50;99.90
5466;DHT22;2755;50.728;7.108;2023-07-28T02:37:15;16.40;99.90
5466;DHT22;2755;50.728;7.108;2023-07-28T02:39:41;16.60;99.90
5466;DHT22;2755;50.728;7.108;2023-07-28T02:42:07;16.80;99.90
5466;DHT22;2755;50.728;7.108;2023-07-28T02:44:32;16.40;99.90
5466;DHT22;2755;50.728;7.108;2023-07-28T02:47:00;17.50;99.90
5466;DHT22;2755;50.728;7.108;2023-07-28T02:49:26;16.20;99.90
5466;DHT22;2755;50.728;7.108;2023-07-28T02:51:51;17.40;99.90
5466;DHT22;2755;50.728;7.108;2023-07-28T02:54:17;16.70;99.90
5466;DHT22;2755;50.728;7.108;2023-07-28T02:56:42;16.60;99.90
5466;DHT22;2755;50.728;7.108;2023-07-28T02:59:08;16.10;99.90
5466;DHT22;2755;50.728;7.108;2023-07-28T03:01:33;16.60;99.90
5466;DHT22;2755;50.728;7.108;2023-07-28T03:04:01;16.50;99.90
5466;DHT22;2755;50.728;7.108;2023-07-28T03:06:27;16.20;99.90
5466;DHT22;2755;50.728;7.108;2023-07-28T03:11:19;16.40;99.90
5466;DHT22;2755;50.728;7.108;2023-07-28T03:13:44;16.40;99.90
5466;DHT22;2755;50.728;7.108;2023-07-28T03:16:10;16.70;99.90
5466;DHT22;2755;50.728;7.108;2023-07-28T03:18:35;16.40;99.90
5466;DHT22;2755;50.728;7.108;2023-07-28T03:21:01;16.50;99.90
5466;DHT22;2755;50.728;7.108;2023-07-28T03:23:27;16.40;99.90
5466;DHT22;2755;50.728;7.108;2023-07-28T03:25:52;16.10;99.90
5466;DHT22;2755;50.728;7.108;2023-07-28T03:35:36;17.10;99.90
5466;DHT22;2755;50.728;7.108;2023-07-28T03:38:02;16.40;99.90
5466;DHT22;2755;50.728;7.108;2023-07-28T03:40:28;16.80;99.90
5466;DHT22;2755;50.728;7.108;2023-07-28T03:45:19;16.80;99.90
5466;DHT22;2755;50.728;7.108;2023-07-28T03:47:45;16.70;99.90
5466;DHT22;2755;50.728;7.108;2023-07-28T03:50:11;16.60;99.90
5466;DHT22;2755;50.728;7.108;2023-07-28T03:52:36;16.70;99.90
5466;DHT22;2755;50.728;7.108;2023-07-28T03:55:02;16.20;99.90
5466;DHT22;2755;50.728;7.108;2023-07-28T03:57:28;16.60;99.90
5466;DHT22;2755;50.728;7.108;2023-07-28T03:59:54;16.80;99.90
5466;DHT22;2755;50.728;7.108;2023-07-28T04:04:46;16.60;99.90
5466;DHT22;2755;50.728;7.108;2023-07-28T04:07:11;16.50;99.90
5466;DHT22;2755;50.728;7.108;2023-07-28T04:09:37;16.90;99.90
5466;DHT22;2755;50.728;7.108;2023-07-28T04:12:02;17.10;99.90
5466;DHT22;2755;50.728;7.108;2023-07-28T04:14:28;17.00;99.90
5466;DHT22;2755;50.728;7.108;2023-07-28T04:16:54;16.70;99.90
5466;DHT22;2755;50.728;7.108;2023-07-28T04:21:45;16.70;99.90
5466;DHT22;2755;50.728;7.108;2023-07-28T04:24:11;16.00;99.90
5466;DHT22;2755;50.728;7.108;2023-07-28T04:26:37;16.70;99.90
5466;DHT22;2755;50.728;7.108;2023-07-28T04:29:03;16.80;99.90
5466;DHT22;2755;50.728;7.108;2023-07-28T04:31:28;16.30;99.90
5466;DHT22;2755;50.728;7.108;2023-07-28T04:33:54;17.20;99.90
5466;DHT22;2755;50.728;7.108;2023-07-28T04:36:19;17.00;99.90
5466;DHT22;2755;50.728;7.108;2023-07-28T04:38:45;16.90;99.90
5466;DHT22;2755;50.728;7.108;2023-07-28T04:43:36;17.00;99.90
5466;DHT22;2755;50.728;7.108;2023-07-28T04:48:28;16.60;99.90
5466;DHT22;2755;50.728;7.108;2023-07-28T04:53:20;16.70;99.90
5466;DHT22;2755;50.728;7.108;2023-07-28T04:55:45;17.00;99.90
5466;DHT22;2755;50.728;7.108;2023-07-28T04:58:11;16.90;99.90
5466;DHT22;2755;50.728;7.108;2023-07-28T05:00:36;17.10;99.90
5466;DHT22;2755;50.728;7.108;2023-07-28T05:03:02;17.00;99.90
5466;DHT22;2755;50.728;7.108;2023-07-28T05:05:29;16.90;99.90
5466;DHT22;2755;50.728;7.108;2023-07-28T05:07:55;16.40;99.90
5466;DHT22;2755;50.728;7.108;2023-07-28T05:12:46;17.00;99.90
5466;DHT22;2755;50.728;7.108;2023-07-28T05:15:14;17.20;99.90
5466;DHT22;2755;50.728;7.108;2023-07-28T05:17:40;16.90;99.90
5466;DHT22;2755;50.728;7.108;2023-07-28T05:20:06;16.80;99.90
5466;DHT22;2755;50.728;7.108;2023-07-28T05:27:24;17.70;99.90
5466;DHT22;2755;50.728;7.108;2023-07-28T05:29:50;17.60;99.90
5466;DHT22;2755;50.728;7.108;2023-07-28T05:32:15;17.40;99.90
5466;DHT22;2755;50.728;7.108;2023-07-28T05:34:44;17.50;99.90
5466;DHT22;2755;50.728;7.108;2023-07-28T05:37:11;17.50;99.90
5466;DHT22;2755;50.728;7.108;2023-07-28T05:39:36;16.70;99.90
5466;DHT22;2755;50.728;7.108;2023-07-28T05:42:02;17.80;99.90
5466;DHT22;2755;50.728;7.108;2023-07-28T05:44:28;17.70;99.90
5466;DHT22;2755;50.728;7.108;2023-07-28T05:46:54;17.50;99.90
5466;DHT22;2755;50.728;7.108;2023-07-28T05:51:45;17.60;99.90
5466;DHT22;2755;50.728;7.108;2023-07-28T05:54:12;17.90;99.90
5466;DHT22;2755;50.728;7.108;2023-07-28T05:56:40;18.10;99.90
5466;DHT22;2755;50.728;7.108;2023-07-28T06:01:32;17.90;99.90
5466;DHT22;2755;50.728;7.108;2023-07-28T06:03:58;17.90;99.90
5466;DHT22;2755;50.728;7.108;2023-07-28T06:06:25;17.90;99.90
5466;DHT22;2755;50.728;7.108;2023-07-28T06:08:51;17.40;99.90
5466;DHT22;2755;50.728;7.108;2023-07-28T06:18:37;18.10;99.90
5466;DHT22;2755;50.728;7.108;2023-07-28T06:21:03;17.60;99.90
5466;DHT22;2755;50.728;7.108;2023-07-28T06:23:28;18.60;99.90
5466;DHT22;2755;50.728;7.108;2023-07-28T06:25:54;18.00;99.90
5466;DHT22;2755;50.728;7.108;2023-07-28T06:28:20;18.00;99.90
5466;DHT22;2755;50.728;7.108;2023-07-28T06:30:46;17.90;99.90
5466;DHT22;2755;50.728;7.108;2023-07-28T06:35:38;18.40;99.90
5466;DHT22;2755;50.728;7.108;2023-07-28T06:38:04;17.90;99.90
5466;DHT22;2755;50.728;7.108;2023-07-28T06:42:56;18.40;99.90
5466;DHT22;2755;50.728;7.108;2023-07-28T06:45:21;18.10;99.90
5466;DHT22;2755;50.728;7.108;2023-07-28T06:47:47;18.40;99.90
5466;DHT22;2755;50.728;7.108;2023-07-28T06:50:14;19.10;99.90
5466;DHT22;2755;50.728;7.108;2023-07-28T06:52:40;18.90;99.90
5466;DHT22;2755;50.728;7.108;2023-07-28T06:55:06;18.70;99.90
5466;DHT22;2755;50.728;7.108;2023-07-28T06:57:31;18.80;99.90
5466;DHT22;2755;50.728;7.108;2023-07-28T06:59:57;18.90;99.90
5466;DHT22;2755;50.728;7.108;2023-07-28T07:02:23;18.30;99.90
5466;DHT22;2755;50.728;7.108;2023-07-28T07:04:49;18.50;99.90
5466;DHT22;2755;50.728;7.108;2023-07-28T07:09:40;19.10;99.90
5466;DHT22;2755;50.728;7.108;2023-07-28T07:12:08;19.30;99.90
5466;DHT22;2755;50.728;7.108;2023-07-28T07:14:34;18.80;99.90
5466;DHT22;2755;50.728;7.108;2023-07-28T07:19:27;19.80;99.90
5466;DHT22;2755;50.728;7.108;2023-07-28T07:21:54;18.20;99.90
5466;DHT22;2755;50.728;7.108;2023-07-28T07:26:46;19.00;99.90
5466;DHT22;2755;50.728;7.108;2023-07-28T07:29:12;19.20;99.90
5466;DHT22;2755;50.728;7.108;2023-07-28T07:31:37;19.50;99.90
5466;DHT22;2755;50.728;7.108;2023-07-28T07:34:03;20.00;99.90
5466;DHT22;2755;50.728;7.108;2023-07-28T07:36:30;19.70;99.90
5466;DHT22;2755;50.728;7.108;2023-07-28T07:38:56;19.20;99.90
5466;DHT22;2755;50.728;7.108;2023-07-28T07:43:49;20.20;99.90
5466;DHT22;2755;50.728;7.108;2023-07-28T07:46:15;19.40;99.90
5466;DHT22;2755;50.728;7.108;2023-07-28T07:48:41;20.00;99.90
5466;DHT22;2755;50.728;7.108;2023-07-28T07:51:08;19.90;99.90
5466;DHT22;2755;50.728;7.108;2023-07-28T07:53:34;20.00;99.90
5466;DHT22;2755;50.728;7.108;2023-07-28T07:56:02;19.90;99.90
5466;DHT22;2755;50.728;7.108;2023-07-28T08:00:55;19.90;99.90
5466;DHT22;2755;50.728;7.108;2023-07-28T08:03:20;19.80;99.90
5466;DHT22;2755;50.728;7.108;2023-07-28T08:05:46;19.60;99.90
5466;DHT22;2755;50.728;7.108;2023-07-28T08:08:12;19.90;99.90
5466;DHT22;2755;50.728;7.108;2023-07-28T08:10:39;20.00;99.90
5466;DHT22;2755;50.728;7.108;2023-07-28T08:13:04;20.40;99.90
5466;DHT22;2755;50.728;7.108;2023-07-28T08:15:30;19.90;99.90
5466;DHT22;2755;50.728;7.108;2023-07-28T08:17:58;20.10;99.90
5466;DHT22;2755;50.728;7.108;2023-07-28T08:20:24;20.00;99.90
5466;DHT22;2755;50.728;7.108;2023-07-28T08:22:50;20.00;99.90
5466;DHT22;2755;50.728;7.108;2023-07-28T08:30:09;20.20;99.90
5466;DHT22;2755;50.728;7.108;2023-07-28T08:32:34;20.00;99.90
5466;DHT22;2755;50.728;7.108;2023-07-28T08:35:00;20.40;99.90
5466;DHT22;2755;50.728;7.108;2023-07-28T08:39:52;20.60;99.90
5466;DHT22;2755;50.728;7.108;2023-07-28T08:42:17;20.60;99.90
5466;DHT22;2755;50.728;7.108;2023-07-28T08:44:43;21.20;99.90
5466;DHT22;2755;50.728;7.108;2023-07-28T08:47:10;21.30;99.90
5466;DHT22;2755;50.728;7.108;2023-07-28T08:49:36;21.70;99.90
5466;DHT22;2755;50.728;7.108;2023-07-28T08:52:02;22.40;99.90
5466;DHT22;2755;50.728;7.108;2023-07-28T08:54:29;23.10;99.90
5466;DHT22;2755;50.728;7.108;2023-07-28T08:56:55;23.40;99.90
5466;DHT22;2755;50.728;7.108;2023-07-28T08:59:24;23.90;99.90
5466;DHT22;2755;50.728;7.108;2023-07-28T09:01:52;24.00;49.90
5466;DHT22;2755;50.728;7.108;2023-07-28T09:04:18;24.30;83.00
5466;DHT22;2755;50.728;7.108;2023-07-28T09:06:47;24.20;70.90
5466;DHT22;2755;50.728;7.108;2023-07-28T09:09:18;23.90;68.00
5466;DHT22;2755;50.728;7.108;2023-07-28T09:11:48;24.60;55.70
5466;DHT22;2755;50.728;7.108;2023-07-28T09:14:16;24.60;50.70
5466;DHT22;2755;50.728;7.108;2023-07-28T09:16:43;24.40;52.30
5466;DHT22;2755;50.728;7.108;2023-07-28T09:19:09;24.60;54.40
5466;DHT22;2755;50.728;7.108;2023-07-28T09:21:35;23.60;53.50
5466;DHT22;2755;50.728;7.108;2023-07-28T09:24:09;24.30;54.20
5466;DHT22;2755;50.728;7.108;2023-07-28T09:26:40;23.70;50.60
5466;DHT22;2755;50.728;7.108;2023-07-28T09:29:17;23.50;50.70
5466;DHT22;2755;50.728;7.108;2023-07-28T09:31:44;23.50;55.00
5466;DHT22;2755;50.728;7.108;2023-07-28T09:34:11;23.10;53.40
5466;DHT22;2755;50.728;7.108;2023-07-28T09:36:37;23.20;55.50
5466;DHT22;2755;50.728;7.108;2023-07-28T09:39:04;23.30;56.80
5466;DHT22;2755;50.728;7.108;2023-07-28T09:41:35;23.20;57.70
5466;DHT22;2755;50.728;7.108;2023-07-28T09:44:01;23.50;55.60
5466;DHT22;2755;50.728;7.108;2023-07-28T09:46:28;23.60;53.70
5466;DHT22;2755;50.728;7.108;2023-07-28T09:51:28;23.50;46.80
5466;DHT22;2755;50.728;7.108;2023-07-28T09:53:58;23.50;46.50
5466;DHT22;2755;50.728;7.108;2023-07-28T09:56:28;23.50;46.70
5466;DHT22;2755;50.728;7.108;2023-07-28T09:58:56;23.40;46.70
5466;DHT22;2755;50.728;7.108;2023-07-28T10:01:23;23.30;43.90
5466;DHT22;2755;50.728;7.108;2023-07-28T10:08:45;23.00;44.40
5466;DHT22;2755;50.728;7.108;2023-07-28T10:11:15;21.00;51.30
5466;DHT22;2755;50.728;7.108;2023-07-28T10:13:43;22.60;48.30
5466;DHT22;2755;50.728;7.108;2023-07-28T10:16:10;22.60;52.00
5466;DHT22;2755;50.728;7.108;2023-07-28T10:21:09;23.20;57.40
5466;DHT22;2755;50.728;7.108;2023-07-28T10:23:39;23.50;50.10
5466;DHT22;2755;50.728;7.108;2023-07-28T10:26:05;24.20;49.40
5466;DHT22;2755;50.728;7.108;2023-07-28T10:28:36;24.40;41.50
5466;DHT22;2755;50.728;7.108;2023-07-28T10:31:07;24.60;40.20
5466;DHT22;2755;50.728;7.108;2023-07-28T10:33:39;25.00;37.60
5466;DHT22;2755;50.728;7.108;2023-07-28T10:36:14;24.10;34.30
5466;DHT22;2755;50.728;7.108;2023-07-28T10:38:41;25.60;30.60
5466;DHT22;2755;50.728;7.108;2023-07-28T10:41:17;25.30;29.70
5466;DHT22;2755;50.728;7.108;2023-07-28T10:43:45;26.10;28.70
5466;DHT22;2755;50.728;7.108;2023-07-28T10:46:14;25.70;13.20
5466;DHT22;2755;50.728;7.108;2023-07-28T10:51:10;25.70;21.80
5466;DHT22;2755;50.728;7.108;2023-07-28T10:58:31;24.80;24.10
5466;DHT22;2755;50.728;7.108;2023-07-28T11:03:28;23.60;26.30
5466;DHT22;2755;50.728;7.108;2023-07-28T11:05:54;23.50;28.80
5466;DHT22;2755;50.728;7.108;2023-07-28T11:13:13;23.50;32.90
5466;DHT22;2755;50.728;7.108;2023-07-28T11:18:05;23.60;39.80
5466;DHT22;2755;50.728;7.108;2023-07-28T11:23:01;23.00;43.50
5466;DHT22;2755;50.728;7.108;2023-07-28T11:25:29;23.00;53.20
5466;DHT22;2755;50.728;7.108;2023-07-28T11:27:55;23.00;57.70
5466;DHT22;2755;50.728;7.108;2023-07-28T11:32:52;24.00;51.40
5466;DHT22;2755;50.728;7.108;2023-07-28T11:35:20;24.30;48.20
5466;DHT22;2755;50.728;7.108;2023-07-28T11:37:48;24.50;43.00
5466;DHT22;2755;50.728;7.108;2023-07-28T11:40:17;24.60;41.50
5466;DHT22;2755;50.728;7.108;2023-07-28T11:42:49;24.20;39.20
5466;DHT22;2755;50.728;7.108;2023-07-28T11:45:17;23.90;38.90
5466;DHT22;2755;50.728;7.108;2023-07-28T11:50:44;23.60;39.70
5466;DHT22;2755;50.728;7.108;2023-07-28T11:53:10;21.90;45.50
5466;DHT22;2755;50.728;7.108;2023-07-28T11:55:37;23.20;48.50
5466;DHT22;2755;50.728;7.108;2023-07-28T11:58:05;23.40;45.20
5466;DHT22;2755;50.728;7.108;2023-07-28T12:00:32;23.00;53.60
5466;DHT22;2755;50.728;7.108;2023-07-28T12:05:38;23.20;52.50
5466;DHT22;2755;50.728;7.108;2023-07-28T12:10:31;23.50;50.10
5466;DHT22;2755;50.728;7.108;2023-07-28T12:12:57;23.20;51.90
5466;DHT22;2755;50.728;7.108;2023-07-28T12:15:29;23.90;51.70
5466;DHT22;2755;50.728;7.108;2023-07-28T12:30:18;24.80;30.40
5466;DHT22;2755;50.728;7.108;2023-07-28T12:37:37;25.40;25.80
5466;DHT22;2755;50.728;7.108;2023-07-28T12:40:03;25.60;21.90
5466;DHT22;2755;50.728;7.108;2023-07-28T12:42:30;25.90;23.00
5466;DHT22;2755;50.728;7.108;2023-07-28T12:44:56;25.40;27.00
5466;DHT22;2755;50.728;7.108;2023-07-28T12:47:21;25.60;27.90
5466;DHT22;2755;50.728;7.108;2023-07-28T12:52:13;25.60;23.00
5466;DHT22;2755;50.728;7.108;2023-07-28T12:54:38;25.10;23.20
5466;DHT22;2755;50.728;7.108;2023-07-28T12:59:34;25.30;25.20
5466;DHT22;2755;50.728;7.108;2023-07-28T13:04:25;25.60;20.60
5466;DHT22;2755;50.728;7.108;2023-07-28T13:06:51;25.00;21.50
5466;DHT22;2755;50.728;7.108;2023-07-28T13:09:16;25.30;22.70
5466;DHT22;2755;50.728;7.108;2023-07-28T13:14:08;24.70;24.10
5466;DHT22;2755;50.728;7.108;2023-07-28T13:16:33;25.30;24.70
5466;DHT22;2755;50.728;7.108;2023-07-28T13:18:59;25.30;25.20
5466;DHT22;2755;50.728;7.108;2023-07-28T13:21:25;25.20;24.50
5466;DHT22;2755;50.728;7.108;2023-07-28T13:23:51;24.90;25.70
5466;DHT22;2755;50.728;7.108;2023-07-28T13:28:42;25.70;23.30
5466;DHT22;2755;50.728;7.108;2023-07-28T13:31:13;25.30;26.10
5466;DHT22;2755;50.728;7.108;2023-07-28T13:36:04;25.80;14.60
5466;DHT22;2755;50.728;7.108;2023-07-28T13:38:33;26.00;16.40
5466;DHT22;2755;50.728;7.108;2023-07-28T13:40:59;26.30;19.50
5466;DHT22;2755;50.728;7.108;2023-07-28T13:43:25;25.90;15.50
5466;DHT22;2755;50.728;7.108;2023-07-28T13:45:51;25.50;16.40
5466;DHT22;2755;50.728;7.108;2023-07-28T13:48:16;25.10;14.70
5466;DHT22;2755;50.728;7.108;2023-07-28T13:50:42;25.00;18.70
5466;DHT22;2755;50.728;7.108;2023-07-28T13:53:07;24.50;23.80
5466;DHT22;2755;50.728;7.108;2023-07-28T13:55:33;23.80;36.70
5466;DHT22;2755;50.728;7.108;2023-07-28T14:00:24;21.00;61.40
5466;DHT22;2755;50.728;7.108;2023-07-28T14:02:50;21.70;77.10
5466;DHT22;2755;50.728;7.108;2023-07-28T14:05:15;20.80;84.10
5466;DHT22;2755;50.728;7.108;2023-07-28T14:07:41;20.50;94.40
5466;DHT22;2755;50.728;7.108;2023-07-28T14:10:07;19.90;99.90
5466;DHT22;2755;50.728;7.108;2023-07-28T14:14:58;19.80;99.90
5466;DHT22;2755;50.728;7.108;2023-07-28T14:17:24;19.00;99.90
5466;DHT22;2755;50.728;7.108;2023-07-28T14:19:50;20.00;99.90
5466;DHT22;2755;50.728;7.108;2023-07-28T14:22:15;19.60;99.90
5466;DHT22;2755;50.728;7.108;2023-07-28T14:24:41;20.30;99.90
5466;DHT22;2755;50.728;7.108;2023-07-28T14:27:06;19.30;99.90
5466;DHT22;2755;50.728;7.108;2023-07-28T14:29:32;19.50;99.90
5466;DHT22;2755;50.728;7.108;2023-07-28T14:31:57;19.20;99.90
5466;DHT22;2755;50.728;7.108;2023-07-28T14:34:23;20.50;99.90
5466;DHT22;2755;50.728;7.108;2023-07-28T14:36:49;20.20;99.90
5466;DHT22;2755;50.728;7.108;2023-07-28T14:41:40;19.80;99.90
5466;DHT22;2755;50.728;7.108;2023-07-28T14:48:58;21.20;99.90
5466;DHT22;2755;50.728;7.108;2023-07-28T14:53:49;20.00;99.90
5466;DHT22;2755;50.728;7.108;2023-07-28T14:56:16;21.60;99.90
5466;DHT22;2755;50.728;7.108;2023-07-28T14:58:42;21.70;99.90
5466;DHT22;2755;50.728;7.108;2023-07-28T15:06:04;20.80;99.90
5466;DHT22;2755;50.728;7.108;2023-07-28T15:08:30;21.10;99.90
5466;DHT22;2755;50.728;7.108;2023-07-28T15:10:57;21.40;99.90
5466;DHT22;2755;50.728;7.108;2023-07-28T15:13:22;21.50;99.90
5466;DHT22;2755;50.728;7.108;2023-07-28T15:15:49;21.50;99.90
5466;DHT22;2755;50.728;7.108;2023-07-28T15:18:15;21.50;99.90
5466;DHT22;2755;50.728;7.108;2023-07-28T15:20:41;21.80;99.90
5466;DHT22;2755;50.728;7.108;2023-07-28T15:23:07;21.70;99.90
5466;DHT22;2755;50.728;7.108;2023-07-28T15:27:59;21.80;99.90
5466;DHT22;2755;50.728;7.108;2023-07-28T15:30:25;21.60;99.90
5466;DHT22;2755;50.728;7.108;2023-07-28T15:32:50;22.20;99.90
5466;DHT22;2755;50.728;7.108;2023-07-28T15:35:16;22.10;99.90
5466;DHT22;2755;50.728;7.108;2023-07-28T15:37:42;22.50;99.90
5466;DHT22;2755;50.728;7.108;2023-07-28T15:40:08;22.90;99.90
5466;DHT22;2755;50.728;7.108;2023-07-28T15:42:33;22.20;99.90
5466;DHT22;2755;50.728;7.108;2023-07-28T15:44:59;22.60;99.90
5466;DHT22;2755;50.728;7.108;2023-07-28T15:49:52;21.50;99.90
5466;DHT22;2755;50.728;7.108;2023-07-28T15:52:19;22.10;99.90
5466;DHT22;2755;50.728;7.108;2023-07-28T15:54:45;22.30;99.90
5466;DHT22;2755;50.728;7.108;2023-07-28T15:57:11;22.00;99.90
5466;DHT22;2755;50.728;7.108;2023-07-28T16:02:04;22.40;99.90
5466;DHT22;2755;50.728;7.108;2023-07-28T16:06:56;21.50;99.90
5466;DHT22;2755;50.728;7.108;2023-07-28T16:21:32;22.20;99.10
5466;DHT22;2755;50.728;7.108;2023-07-28T16:23:58;22.20;97.70
5466;DHT22;2755;50.728;7.108;2023-07-28T16:26:24;22.60;99.90
5466;DHT22;2755;50.728;7.108;2023-07-28T16:28:50;22.00;99.90
5466;DHT22;2755;50.728;7.108;2023-07-28T16:31:15;22.70;99.90
5466;DHT22;2755;50.728;7.108;2023-07-28T16:36:07;22.20;99.90
5466;DHT22;2755;50.728;7.108;2023-07-28T16:38:33;23.00;99.90
5466;DHT22;2755;50.728;7.108;2023-07-28T16:40:58;22.00;99.90
5466;DHT22;2755;50.728;7.108;2023-07-28T16:43:24;22.40;99.90
5466;DHT22;2755;50.728;7.108;2023-07-28T16:48:15;21.70;98.80
5466;DHT22;2755;50.728;7.108;2023-07-28T16:50:41;21.70;98.80
5466;DHT22;2755;50.728;7.108;2023-07-28T16:53:06;21.40;95.90
5466;DHT22;2755;50.728;7.108;2023-07-28T16:57:58;21.20;97.20
5466;DHT22;2755;50.728;7.108;2023-07-28T17:00:24;22.10;99.90
5466;DHT22;2755;50.728;7.108;2023-07-28T17:05:16;21.50;99.90
5466;DHT22;2755;50.728;7.108;2023-07-28T17:10:09;21.30;99.60
5466;DHT22;2755;50.728;7.108;2023-07-28T17:17:27;21.10;99.90
5466;DHT22;2755;50.728;7.108;2023-07-28T17:19:52;21.40;99.40
5466;DHT22;2755;50.728;7.108;2023-07-28T17:22:18;21.40;99.60
5466;DHT22;2755;50.728;7.108;2023-07-28T17:27:10;21.10;99.90
5466;DHT22;2755;50.728;7.108;2023-07-28T17:29:36;21.20;99.90
5466;DHT22;2755;50.728;7.108;2023-07-28T17:32:01;20.90;99.10
5466;DHT22;2755;50.728;7.108;2023-07-28T17:34:27;21.30;99.00
5466;DHT22;2755;50.728;7.108;2023-07-28T17:36:52;20.90;98.00
5466;DHT22;2755;50.728;7.108;2023-07-28T17:39:18;21.50;96.40
5466;DHT22;2755;50.728;7.108;2023-07-28T17:41:44;21.50;95.90
5466;DHT22;2755;50.728;7.108;2023-07-28T17:44:10;21.40;97.90
5466;DHT22;2755;50.728;7.108;2023-07-28T17:46:35;21.90;96.70
5466;DHT22;2755;50.728;7.108;2023-07-28T17:49:01;20.40;96.70
5466;DHT22;2755;50.728;7.108;2023-07-28T17:53:53;22.00;94.30
5466;DHT22;2755;50.728;7.108;2023-07-28T17:56:18;22.10;93.20
5466;DHT22;2755;50.728;7.108;2023-07-28T17:58:44;22.10;91.50
5466;DHT22;2755;50.728;7.108;2023-07-28T18:06:02;21.20;92.40
5466;DHT22;2755;50.728;7.108;2023-07-28T18:08:28;21.50;92.10
5466;DHT22;2755;50.728;7.108;2023-07-28T18:10:53;21.30;90.70
5466;DHT22;2755;50.728;7.108;2023-07-28T18:15:45;21.30;90.70
5466;DHT22;2755;50.728;7.108;2023-07-28T18:18:11;21.30;90.70
5466;DHT22;2755;50.728;7.108;2023-07-28T18:25:28;21.00;92.90
5466;DHT22;2755;50.728;7.108;2023-07-28T18:30:22;20.90;92.20
5466;DHT22;2755;50.728;7.108;2023-07-28T18:32:47;20.90;92.10
5466;DHT22;2755;50.728;7.108;2023-07-28T18:35:14;20.80;93.30
5466;DHT22;2755;50.728;7.108;2023-07-28T18:54:43;20.30;97.00
5466;DHT22;2755;50.728;7.108;2023-07-28T19:02:01;20.40;99.90
5466;DHT22;2755;50.728;7.108;2023-07-28T19:04:27;20.50;99.90
5466;DHT22;2755;50.728;7.108;2023-07-28T19:09:19;19.70;99.90
5466;DHT22;2755;50.728;7.108;2023-07-28T19:11:44;20.60;99.90
5466;DHT22;2755;50.728;7.108;2023-07-28T19:14:10;21.00;99.90
5466;DHT22;2755;50.728;7.108;2023-07-28T19:16:35;20.60;99.90
5466;DHT22;2755;50.728;7.108;2023-07-28T19:23:55;20.80;99.90
5466;DHT22;2755;50.728;7.108;2023-07-28T19:26:21;20.30;99.90
5466;DHT22;2755;50.728;7.108;2023-07-28T19:36:06;19.80;99.90
5466;DHT22;2755;50.728;7.108;2023-07-28T19:38:31;21.30;99.90
5466;DHT22;2755;50.728;7.108;2023-07-28T19:43:23;20.10;99.90
5466;DHT22;2755;50.728;7.108;2023-07-28T19:45:52;19.90;99.90
5466;DHT22;2755;50.728;7.108;2023-07-28T19:53:11;19.40;99.90
5466;DHT22;2755;50.728;7.108;2023-07-28T19:58:02;20.10;99.90
5466;DHT22;2755;50.728;7.108;2023-07-28T20:02:54;20.20;99.90
5466;DHT22;2755;50.728;7.108;2023-07-28T20:05:19;19.70;99.90
5466;DHT22;2755;50.728;7.108;2023-07-28T20:15:05;19.40;99.20
5466;DHT22;2755;50.728;7.108;2023-07-28T20:24:49;20.10;98.80
5466;DHT22;2755;50.728;7.108;2023-07-28T20:27:16;19.70;98.30
5466;DHT22;2755;50.728;7.108;2023-07-28T20:29:42;19.80;98.30
5466;DHT22;2755;50.728;7.108;2023-07-28T20:32:08;20.10;99.10
5466;DHT22;2755;50.728;7.108;2023-07-28T20:34:34;18.70;97.80
5466;DHT22;2755;50.728;7.108;2023-07-28T20:37:01;18.60;99.50
5466;DHT22;2755;50.728;7.108;2023-07-28T20:41:52;19.70;98.70
5466;DHT22;2755;50.728;7.108;2023-07-28T20:44:18;19.80;99.50
5466;DHT22;2755;50.728;7.108;2023-07-28T20:46:46;19.60;97.80
5466;DHT22;2755;50.728;7.108;2023-07-28T20:49:12;19.70;98.00
5466;DHT22;2755;50.728;7.108;2023-07-28T20:54:04;19.70;98.90
5466;DHT22;2755;50.728;7.108;2023-07-28T20:58:55;20.20;96.40
5466;DHT22;2755;50.728;7.108;2023-07-28T21:01:21;19.70;97.20
5466;DHT22;2755;50.728;7.108;2023-07-28T21:03:47;19.90;98.10
5466;DHT22;2755;50.728;7.108;2023-07-28T21:08:39;19.50;96.10
5466;DHT22;2755;50.728;7.108;2023-07-28T21:11:05;19.50;96.50
5466;DHT22;2755;50.728;7.108;2023-07-28T21:13:31;19.80;96.60
5466;DHT22;2755;50.728;7.108;2023-07-28T21:15:56;20.00;98.70